Time;durP1;ratioP1;P1;durP2;ratioP2;P2;SDS_P1;SDS_P2;PMS_P1;PMS_P2;Temp;Humidity;BMP_temperature;BMP_pressure;BME280_temperature;BME280_humidity;BME280_pressure;Samples;Min_cycle;Max_cycle;Signal;HPM_P1;HPM_P2
2022/07/24 00:00:52;;;;;;;0.50;0.50;;;16.10;99.90;;;;;;5008533;28;20060;-79
2022/07/24 00:03:18;;;;;;;0.30;0.30;;;16.10;99.90;;;;;;5007450;28;20032;-79
2022/07/24 00:05:43;;;;;;;0.93;0.73;;;16.00;99.90;;;;;;5009606;28;20025;-79
2022/07/24 00:08:09;;;;;;;0.57;0.57;;;15.90;99.90;;;;;;5008565;28;20540;-79
2022/07/24 00:10:34;;;;;;;3.20;0.70;;;15.90;99.90;;;;;;5008762;28;20025;-79
2022/07/24 00:13:00;;;;;;;1.48;0.63;;;15.80;99.90;;;;;;5009059;28;20376;-79
2022/07/24 00:15:25;;;;;;;0.75;0.43;;;15.70;99.90;;;;;;5006817;28;20061;-79
2022/07/24 00:17:51;;;;;;;0.68;0.60;;;15.70;99.90;;;;;;5008711;28;20131;-79
2022/07/24 00:20:16;;;;;;;0.60;0.60;;;15.70;99.90;;;;;;5008164;28;20411;-79
2022/07/24 00:22:42;;;;;;;0.50;0.45;;;15.70;99.90;;;;;;5007155;28;20033;-80
2022/07/24 00:25:07;;;;;;;0.50;0.40;;;15.60;99.90;;;;;;5009085;28;20029;-79
2022/07/24 00:27:33;;;;;;;0.47;0.45;;;15.60;99.90;;;;;;5008528;28;20030;-79
2022/07/24 00:29:58;;;;;;;0.52;0.45;;;15.50;99.90;;;;;;5007731;28;20018;-79
2022/07/24 00:32:24;;;;;;;0.88;0.65;;;15.50;99.90;;;;;;5009735;28;20654;-79
2022/07/24 00:34:49;;;;;;;0.47;0.47;;;15.40;99.90;;;;;;5007593;28;20021;-79
2022/07/24 00:37:15;;;;;;;2.22;0.50;;;15.40;99.90;;;;;;5008798;28;20053;-79
2022/07/24 00:39:40;;;;;;;0.70;0.55;;;15.40;99.90;;;;;;5008427;28;20013;-80
2022/07/24 00:42:06;;;;;;;0.52;0.52;;;15.30;99.90;;;;;;5008949;28;20045;-80
2022/07/24 00:44:31;;;;;;;0.45;0.43;;;15.30;99.90;;;;;;5008732;28;20087;-80
2022/07/24 00:46:57;;;;;;;2.17;0.88;;;15.30;99.90;;;;;;5007461;28;20025;-80
2022/07/24 00:49:22;;;;;;;1.35;0.70;;;15.30;99.90;;;;;;5008380;28;20030;-80
2022/07/24 00:51:51;;;;;;;0.50;0.50;;;15.20;99.90;;;;;;5008292;28;20022;-79
2022/07/24 00:54:18;;;;;;;0.55;0.55;;;15.10;99.90;;;;;;5009249;28;20029;-79
2022/07/24 00:56:45;;;;;;;0.65;0.60;;;15.10;99.90;;;;;;5011043;28;20080;-79
2022/07/24 00:59:11;;;;;;;0.90;0.70;;;15.10;99.90;;;;;;5011063;28;20026;-79
2022/07/24 01:01:37;;;;;;;1.27;0.50;;;15.10;99.90;;;;;;5011306;28;20018;-79
2022/07/24 01:04:03;;;;;;;1.20;0.90;;;15.00;99.90;;;;;;5011745;28;20033;-79
2022/07/24 01:06:28;;;;;;;1.70;0.75;;;15.00;99.90;;;;;;5011242;28;20068;-79
2022/07/24 01:08:54;;;;;;;0.60;0.60;;;14.90;99.90;;;;;;5009578;28;20362;-79
2022/07/24 01:11:21;;;;;;;1.65;0.57;;;14.90;99.90;;;;;;5011142;28;20611;-79
2022/07/24 01:13:48;;;;;;;1.13;0.70;;;14.90;99.90;;;;;;5009679;28;20033;-79
2022/07/24 01:16:14;;;;;;;1.10;0.68;;;15.00;99.90;;;;;;5010433;28;20033;-79
2022/07/24 01:18:39;;;;;;;0.93;0.40;;;14.90;99.90;;;;;;5011261;28;20038;-79
2022/07/24 01:21:05;;;;;;;0.90;0.88;;;14.90;99.90;;;;;;5011038;28;20193;-79
2022/07/24 01:23:31;;;;;;;0.50;0.50;;;14.80;99.90;;;;;;5010741;28;20029;-79
2022/07/24 01:25:56;;;;;;;0.60;0.60;;;14.80;99.90;;;;;;5011534;28;20392;-79
2022/07/24 01:28:22;;;;;;;0.68;0.57;;;14.80;99.90;;;;;;5011802;28;20033;-79
2022/07/24 01:30:47;;;;;;;0.70;0.70;;;14.80;99.90;;;;;;5010390;28;20022;-79
2022/07/24 01:33:16;;;;;;;0.70;0.68;;;14.80;99.90;;;;;;5010846;28;20018;-79
2022/07/24 01:35:42;;;;;;;0.57;0.57;;;14.70;99.90;;;;;;5009548;28;20424;-79
2022/07/24 01:38:09;;;;;;;0.88;0.60;;;14.70;99.90;;;;;;5010789;28;20520;-79
2022/07/24 01:40:34;;;;;;;0.60;0.60;;;14.60;99.90;;;;;;5011382;28;20485;-79
2022/07/24 01:43:00;;;;;;;0.57;0.52;;;14.70;99.90;;;;;;5011362;28;20072;-79
2022/07/24 01:45:26;;;;;;;0.35;0.35;;;14.60;99.90;;;;;;5010068;28;20736;-79
2022/07/24 01:47:52;;;;;;;0.50;0.50;;;14.60;99.90;;;;;;5010637;28;20029;-78
2022/07/24 01:50:17;;;;;;;1.00;0.70;;;14.60;99.90;;;;;;5010786;28;20424;-79
2022/07/24 01:52:43;;;;;;;0.90;0.70;;;14.60;99.90;;;;;;5009502;28;20048;-79
2022/07/24 01:55:08;;;;;;;0.50;0.50;;;14.50;99.90;;;;;;5010587;28;20018;-79
2022/07/24 01:57:35;;;;;;;0.40;0.40;;;14.50;99.90;;;;;;5010266;28;20030;-79
2022/07/24 02:00:01;;;;;;;0.45;0.45;;;14.50;99.90;;;;;;5011216;28;20091;-79
2022/07/24 02:02:27;;;;;;;0.70;0.60;;;14.50;99.90;;;;;;5011114;28;20037;-79
2022/07/24 02:04:53;;;;;;;0.47;0.47;;;14.50;99.90;;;;;;5009517;28;20041;-79
2022/07/24 02:07:19;;;;;;;0.80;0.73;;;14.50;99.90;;;;;;5008411;28;20025;-79
2022/07/24 02:09:45;;;;;;;0.90;0.70;;;14.40;99.90;;;;;;5010364;28;20034;-79
2022/07/24 02:12:10;;;;;;;0.50;0.50;;;14.40;99.90;;;;;;5010554;28;20030;-79
2022/07/24 02:14:36;;;;;;;1.23;0.60;;;14.40;99.90;;;;;;5010046;28;20034;-79
2022/07/24 02:17:01;;;;;;;0.65;0.65;;;14.40;99.90;;;;;;5011262;28;20065;-79
2022/07/24 02:19:26;;;;;;;0.70;0.50;;;14.40;99.90;;;;;;5008891;28;20051;-79
2022/07/24 02:21:52;;;;;;;0.68;0.52;;;14.40;99.90;;;;;;5011407;28;20030;-79
2022/07/24 02:24:17;;;;;;;1.27;0.60;;;14.40;99.90;;;;;;5009817;28;20108;-80
2022/07/24 02:26:43;;;;;;;0.63;0.50;;;14.30;99.90;;;;;;5009254;28;20026;-79
2022/07/24 02:29:08;;;;;;;0.47;0.47;;;14.40;99.90;;;;;;5010750;28;20072;-79
2022/07/24 02:31:34;;;;;;;0.98;0.88;;;14.30;99.90;;;;;;5007861;28;20048;-80
2022/07/24 02:34:00;;;;;;;0.65;0.40;;;14.30;99.90;;;;;;5008856;28;20053;-79
2022/07/24 02:36:25;;;;;;;0.50;0.40;;;14.20;99.90;;;;;;5008351;28;20598;-80
2022/07/24 02:38:51;;;;;;;0.30;0.30;;;14.20;99.90;;;;;;5010371;28;20033;-79
2022/07/24 02:41:17;;;;;;;1.95;1.10;;;14.20;99.90;;;;;;5006284;28;20025;-79
2022/07/24 02:43:42;;;;;;;1.00;0.60;;;14.10;99.90;;;;;;5010079;28;20029;-79
2022/07/24 02:46:08;;;;;;;0.77;0.77;;;14.10;99.90;;;;;;5008691;28;20033;-79
2022/07/24 02:48:34;;;;;;;0.65;0.50;;;14.10;99.90;;;;;;5009323;28;20165;-79
2022/07/24 02:50:59;;;;;;;0.47;0.45;;;14.00;99.90;;;;;;5008684;28;20037;-79
2022/07/24 02:53:25;;;;;;;0.63;0.63;;;14.00;99.90;;;;;;5007385;28;20025;-79
2022/07/24 02:55:50;;;;;;;0.50;0.50;;;14.00;99.90;;;;;;5009816;28;20030;-79
2022/07/24 02:58:16;;;;;;;0.63;0.63;;;13.90;99.90;;;;;;5008636;28;20485;-79
2022/07/24 03:00:41;;;;;;;0.60;0.60;;;13.90;99.90;;;;;;5016149;28;20033;-79
2022/07/24 03:03:07;;;;;;;0.50;0.50;;;13.90;99.90;;;;;;5009130;28;20374;-79
2022/07/24 03:05:32;;;;;;;0.80;0.80;;;13.90;99.90;;;;;;5009520;28;20025;-79
2022/07/24 03:07:58;;;;;;;0.70;0.70;;;13.80;99.90;;;;;;5009683;28;20385;-79
2022/07/24 03:10:23;;;;;;;1.25;0.60;;;13.80;99.90;;;;;;5009573;28;20057;-79
2022/07/24 03:12:49;;;;;;;0.98;0.88;;;13.80;99.90;;;;;;5008412;28;20026;-79
2022/07/24 03:15:15;;;;;;;0.60;0.60;;;13.80;99.90;;;;;;5007988;28;20018;-79
2022/07/24 03:17:51;;;;;;;0.50;0.50;;;13.80;99.90;;;;;;5010795;28;20241;-79
2022/07/24 03:20:17;;;;;;;0.70;0.68;;;13.80;99.90;;;;;;5012448;28;20025;-79
2022/07/24 03:22:44;;;;;;;0.30;0.30;;;13.80;99.90;;;;;;5007770;28;20026;-79
2022/07/24 03:25:10;;;;;;;0.50;0.50;;;13.80;99.90;;;;;;5010055;28;20279;-80
2022/07/24 03:27:35;;;;;;;0.90;0.50;;;13.70;99.90;;;;;;5009295;28;20128;-79
2022/07/24 03:30:01;;;;;;;0.73;0.73;;;13.70;99.90;;;;;;5009131;28;20515;-79
2022/07/24 03:32:26;;;;;;;0.65;0.47;;;13.80;99.90;;;;;;5006376;28;20033;-79
2022/07/24 03:34:51;;;;;;;0.88;0.75;;;13.70;99.90;;;;;;5009026;28;20021;-79
2022/07/24 03:37:17;;;;;;;1.30;0.47;;;13.80;99.90;;;;;;5009290;28;20358;-79
2022/07/24 03:39:42;;;;;;;0.60;0.60;;;13.70;99.90;;;;;;5009373;28;20022;-79
2022/07/24 03:42:08;;;;;;;0.32;0.32;;;13.70;99.90;;;;;;5009257;28;20018;-79
2022/07/24 03:44:33;;;;;;;0.47;0.47;;;13.70;99.90;;;;;;5008186;28;20026;-79
2022/07/24 03:46:59;;;;;;;2.35;1.00;;;13.70;99.90;;;;;;5003150;28;20033;-79
2022/07/24 03:49:24;;;;;;;4.35;0.55;;;13.70;99.90;;;;;;5008412;28;20084;-79
2022/07/24 03:51:50;;;;;;;0.38;0.38;;;13.70;99.90;;;;;;5008956;28;20022;-78
2022/07/24 03:54:16;;;;;;;0.57;0.57;;;13.80;99.90;;;;;;5008701;28;20022;-79
2022/07/24 03:56:42;;;;;;;1.10;0.70;;;13.80;99.90;;;;;;5008522;28;20034;-79
2022/07/24 03:59:10;;;;;;;0.40;0.40;;;13.80;99.90;;;;;;5009125;28;20488;-79
2022/07/24 04:01:35;;;;;;;0.50;0.50;;;13.80;99.90;;;;;;5007298;28;20120;-79
2022/07/24 04:04:04;;;;;;;0.57;0.30;;;13.80;99.90;;;;;;5008026;28;20125;-79
2022/07/24 04:06:31;;;;;;;0.47;0.47;;;13.80;99.90;;;;;;4996181;28;20034;-79
2022/07/24 04:08:56;;;;;;;0.30;0.30;;;13.80;99.90;;;;;;5009727;28;20439;-78
2022/07/24 04:11:22;;;;;;;0.75;0.60;;;13.90;99.90;;;;;;5007882;28;20334;-79
2022/07/24 04:13:47;;;;;;;0.52;0.52;;;13.90;99.90;;;;;;5008574;28;20018;-78
2022/07/24 04:16:13;;;;;;;0.68;0.63;;;13.90;99.90;;;;;;4990682;28;20037;-79
2022/07/24 04:18:38;;;;;;;0.60;0.60;;;13.90;99.90;;;;;;5006941;28;20480;-79
2022/07/24 04:21:05;;;;;;;1.10;1.00;;;14.00;99.90;;;;;;5007512;28;20057;-79
2022/07/24 04:23:30;;;;;;;0.77;0.75;;;14.00;99.90;;;;;;5008051;28;20041;-79
2022/07/24 04:25:56;;;;;;;1.02;0.73;;;14.10;99.90;;;;;;5007355;28;20512;-79
2022/07/24 04:28:21;;;;;;;0.50;0.50;;;14.20;99.90;;;;;;5008830;28;20037;-80
2022/07/24 04:30:47;;;;;;;0.60;0.60;;;14.30;99.90;;;;;;5011390;28;20453;-79
2022/07/24 04:33:12;;;;;;;1.40;0.80;;;14.40;99.90;;;;;;5012624;28;20061;-79
2022/07/24 04:35:38;;;;;;;0.93;0.60;;;14.50;99.90;;;;;;5009638;28;20365;-79
2022/07/24 04:38:03;;;;;;;1.90;0.70;;;14.60;99.90;;;;;;5012014;28;20128;-79
2022/07/24 04:40:28;;;;;;;0.90;0.90;;;14.70;99.90;;;;;;5012412;28;20018;-79
2022/07/24 04:42:54;;;;;;;2.00;0.88;;;14.80;99.90;;;;;;5010399;28;20464;-79
2022/07/24 04:45:20;;;;;;;1.15;0.60;;;14.90;99.90;;;;;;5012191;28;20026;-80
2022/07/24 04:47:45;;;;;;;0.68;0.68;;;14.90;99.90;;;;;;5011447;28;20125;-80
2022/07/24 04:50:11;;;;;;;1.42;0.68;;;14.90;99.90;;;;;;5011441;28;20100;-80
2022/07/24 04:52:36;;;;;;;1.92;0.60;;;14.90;99.90;;;;;;5010993;28;20022;-80
2022/07/24 04:55:02;;;;;;;0.60;0.60;;;15.00;99.90;;;;;;5010360;28;20405;-82
2022/07/24 04:57:27;;;;;;;0.90;0.50;;;15.10;99.90;;;;;;5011142;28;20483;-78
2022/07/24 04:59:53;;;;;;;1.10;0.85;;;15.10;99.90;;;;;;5011943;28;20504;-78
2022/07/24 05:02:18;;;;;;;1.15;0.60;;;15.10;99.90;;;;;;5011314;28;20025;-78
2022/07/24 05:04:44;;;;;;;0.50;0.50;;;15.10;99.90;;;;;;5011847;28;20147;-78
2022/07/24 05:07:09;;;;;;;0.57;0.50;;;15.20;99.90;;;;;;5008475;28;20096;-79
2022/07/24 05:09:35;;;;;;;0.22;0.22;;;15.20;99.90;;;;;;5009642;28;20025;-78
2022/07/24 05:12:00;;;;;;;0.55;0.55;;;15.20;99.90;;;;;;5011205;28;20432;-78
2022/07/24 05:14:26;;;;;;;0.52;0.50;;;15.30;99.90;;;;;;5011405;28;20104;-78
2022/07/24 05:16:51;;;;;;;0.43;0.40;;;15.30;99.90;;;;;;5011229;28;20042;-78
2022/07/24 05:19:17;;;;;;;0.43;0.43;;;15.40;99.90;;;;;;5009056;28;20452;-77
2022/07/24 05:21:43;;;;;;;0.77;0.50;;;15.40;99.90;;;;;;5011098;28;20037;-78
2022/07/24 05:24:08;;;;;;;0.40;0.32;;;15.40;99.90;;;;;;5010890;28;20034;-77
2022/07/24 05:26:34;;;;;;;0.22;0.22;;;15.50;99.90;;;;;;5010181;28;20048;-78
2022/07/24 05:29:05;;;;;;;0.30;0.30;;;15.60;99.90;;;;;;5011026;28;20493;-78
2022/07/24 05:31:31;;;;;;;0.70;0.70;;;15.50;99.90;;;;;;5009609;28;20033;-78
2022/07/24 05:33:58;;;;;;;0.30;0.30;;;15.60;99.90;;;;;;5009776;28;20018;-78
2022/07/24 05:36:24;;;;;;;0.35;0.35;;;15.70;99.90;;;;;;5009486;28;20030;-79
2022/07/24 05:38:49;;;;;;;0.65;0.50;;;15.70;99.90;;;;;;5010644;28;20022;-78
2022/07/24 05:41:14;;;;;;;0.57;0.50;;;15.80;99.90;;;;;;5008910;28;20033;-79
2022/07/24 05:43:40;;;;;;;1.55;0.80;;;15.80;99.90;;;;;;5011028;28;20041;-78
2022/07/24 05:46:06;;;;;;;0.40;0.40;;;15.90;99.90;;;;;;5010530;28;20030;-78
2022/07/24 05:48:31;;;;;;;0.50;0.50;;;15.90;99.90;;;;;;5009495;28;20129;-78
2022/07/24 05:50:57;;;;;;;0.45;0.45;;;15.90;99.90;;;;;;5009197;28;20029;-78
2022/07/24 05:53:23;;;;;;;0.40;0.40;;;16.00;99.90;;;;;;5009192;28;20021;-78
2022/07/24 05:55:49;;;;;;;0.35;0.35;;;16.00;99.90;;;;;;5009411;28;20026;-78
2022/07/24 05:58:15;;;;;;;0.30;0.30;;;16.00;99.90;;;;;;5009866;28;20026;-79
2022/07/24 06:00:40;;;;;;;0.90;0.85;;;16.10;99.90;;;;;;5009896;28;20366;-77
2022/07/24 06:03:06;;;;;;;0.28;0.28;;;16.10;99.90;;;;;;5010632;28;20176;-78
2022/07/24 06:05:31;;;;;;;0.43;0.43;;;16.10;99.90;;;;;;5008530;28;20567;-79
2022/07/24 06:07:57;;;;;;;2.53;0.40;;;16.10;99.90;;;;;;5009584;28;20026;-78
2022/07/24 06:10:22;;;;;;;0.47;0.32;;;16.10;99.90;;;;;;5010102;28;20029;-78
2022/07/24 06:12:48;;;;;;;0.73;0.50;;;16.30;99.90;;;;;;5009701;28;20080;-79
2022/07/24 06:15:13;;;;;;;0.70;0.50;;;16.30;99.90;;;;;;5009216;28;20022;-78
2022/07/24 06:17:39;;;;;;;0.47;0.47;;;16.30;99.90;;;;;;5009572;28;20074;-78
2022/07/24 06:20:07;;;;;;;0.73;0.60;;;16.30;99.90;;;;;;5009953;28;20034;-78
2022/07/24 06:22:32;;;;;;;0.65;0.52;;;16.40;99.90;;;;;;5008582;28;20046;-78
2022/07/24 06:24:57;;;;;;;1.17;0.70;;;16.50;99.90;;;;;;5007757;28;20038;-79
2022/07/24 06:27:23;;;;;;;0.50;0.50;;;16.50;99.90;;;;;;5009392;28;20034;-78
2022/07/24 06:29:48;;;;;;;2.38;0.50;;;16.60;99.90;;;;;;5009069;28;20487;-78
2022/07/24 06:32:14;;;;;;;0.73;0.40;;;16.70;99.30;;;;;;5009090;28;20073;-78
2022/07/24 06:34:39;;;;;;;0.45;0.40;;;16.70;99.60;;;;;;5009486;28;20026;-78
2022/07/24 06:37:05;;;;;;;0.32;0.32;;;16.70;99.70;;;;;;5008973;28;20104;-77
2022/07/24 06:39:31;;;;;;;0.57;0.40;;;16.80;99.20;;;;;;5007727;28;20030;-79
2022/07/24 06:41:56;;;;;;;0.50;0.43;;;16.80;98.60;;;;;;5009483;28;20465;-78
2022/07/24 06:44:22;;;;;;;0.30;0.30;;;16.90;98.50;;;;;;5008338;28;20400;-78
2022/07/24 06:46:48;;;;;;;0.40;0.40;;;16.90;98.20;;;;;;5009775;28;20038;-78
2022/07/24 06:49:14;;;;;;;0.40;0.40;;;17.00;98.80;;;;;;5008567;28;20075;-78
2022/07/24 06:51:39;;;;;;;0.47;0.47;;;17.00;97.50;;;;;;4992343;28;20116;-77
2022/07/24 06:54:05;;;;;;;0.20;0.20;;;17.00;97.50;;;;;;5009855;28;20026;-78
2022/07/24 06:56:30;;;;;;;0.30;0.30;;;17.00;97.80;;;;;;5005518;28;20025;-77
2022/07/24 06:58:55;;;;;;;1.08;0.50;;;17.10;97.60;;;;;;5004861;28;20029;-78
2022/07/24 07:01:21;;;;;;;1.15;0.40;;;17.10;98.20;;;;;;5004821;28;20611;-79
2022/07/24 07:03:48;;;;;;;0.57;0.57;;;17.10;97.30;;;;;;5008012;28;20356;-79
2022/07/24 07:06:13;;;;;;;2.17;0.45;;;17.20;98.00;;;;;;5007660;28;20037;-79
2022/07/24 07:08:38;;;;;;;1.10;0.52;;;17.20;97.30;;;;;;5007715;28;20034;-76
2022/07/24 07:11:04;;;;;;;0.77;0.50;;;17.30;97.40;;;;;;5007138;28;20022;-79
2022/07/24 07:13:29;;;;;;;0.43;0.43;;;17.40;97.40;;;;;;5009342;28;20596;-77
2022/07/24 07:15:55;;;;;;;1.77;0.50;;;17.40;97.10;;;;;;5009248;28;20030;-78
2022/07/24 07:18:20;;;;;;;0.52;0.50;;;17.40;97.00;;;;;;5009730;28;20782;-76
2022/07/24 07:20:47;;;;;;;0.55;0.55;;;17.50;96.70;;;;;;5007944;28;20033;-77
2022/07/24 07:23:13;;;;;;;0.73;0.30;;;17.50;97.30;;;;;;5009871;28;20038;-79
2022/07/24 07:25:38;;;;;;;0.40;0.40;;;17.60;96.60;;;;;;5008367;28;20037;-77
2022/07/24 07:28:04;;;;;;;1.65;0.43;;;17.70;96.40;;;;;;5009119;28;20057;-80
2022/07/24 07:30:29;;;;;;;0.40;0.40;;;17.70;95.30;;;;;;5006996;28;20442;-79
2022/07/24 07:32:55;;;;;;;0.50;0.50;;;17.70;95.00;;;;;;5015042;28;20013;-77
2022/07/24 07:35:22;;;;;;;0.40;0.40;;;17.80;95.20;;;;;;5009359;28;20101;-76
2022/07/24 07:37:51;;;;;;;0.40;0.40;;;17.80;93.50;;;;;;5008189;28;20034;-77
2022/07/24 07:40:17;;;;;;;0.47;0.43;;;17.80;93.60;;;;;;5007472;28;20033;-77
2022/07/24 07:42:42;;;;;;;3.00;0.40;;;17.90;93.80;;;;;;5007304;28;20541;-77
2022/07/24 07:45:08;;;;;;;0.30;0.30;;;18.00;92.10;;;;;;5008850;28;20085;-77
2022/07/24 07:47:37;;;;;;;1.08;0.63;;;18.00;91.90;;;;;;5005532;28;20034;-77
2022/07/24 07:50:03;;;;;;;0.68;0.50;;;18.00;92.30;;;;;;5008608;28;20029;-77
2022/07/24 07:52:29;;;;;;;0.35;0.35;;;18.10;91.40;;;;;;5005280;28;20121;-76
2022/07/24 07:54:54;;;;;;;0.40;0.40;;;18.10;91.40;;;;;;5007847;28;20540;-76
2022/07/24 07:57:20;;;;;;;0.20;0.20;;;18.20;91.10;;;;;;5008640;28;20038;-76
2022/07/24 07:59:45;;;;;;;1.00;0.50;;;18.30;90.70;;;;;;5009419;28;20118;-76
2022/07/24 08:02:11;;;;;;;0.38;0.35;;;18.40;90.90;;;;;;5006410;28;20034;-75
2022/07/24 08:04:36;;;;;;;1.00;0.30;;;18.50;90.20;;;;;;5003772;28;20087;-80
2022/07/24 08:07:02;;;;;;;0.40;0.40;;;18.60;89.80;;;;;;5007760;28;20037;-77
2022/07/24 08:09:27;;;;;;;0.32;0.32;;;18.60;89.80;;;;;;5012015;28;20026;-77
2022/07/24 08:11:53;;;;;;;0.57;0.40;;;18.60;89.10;;;;;;5014345;28;20657;-77
2022/07/24 08:14:18;;;;;;;0.30;0.30;;;18.70;89.10;;;;;;5008699;28;20515;-76
2022/07/24 08:16:44;;;;;;;0.90;0.43;;;18.90;89.30;;;;;;5007736;28;20096;-76
2022/07/24 08:19:09;;;;;;;0.20;0.20;;;18.90;84.30;;;;;;5009505;28;20034;-76
2022/07/24 08:21:35;;;;;;;1.00;0.38;;;19.00;82.70;;;;;;5006456;28;20030;-77
2022/07/24 08:24:00;;;;;;;1.90;0.40;;;18.90;83.30;;;;;;5006355;28;20110;-76
2022/07/24 08:26:30;;;;;;;0.40;0.40;;;19.00;84.90;;;;;;5009533;28;20415;-75
2022/07/24 08:28:57;;;;;;;0.25;0.25;;;19.00;83.80;;;;;;5007796;28;20021;-75
2022/07/24 08:31:22;;;;;;;0.73;0.65;;;19.20;82.70;;;;;;5010974;28;20389;-76
2022/07/24 08:33:48;;;;;;;2.22;0.57;;;19.20;82.90;;;;;;5005625;28;20018;-75
2022/07/24 08:36:13;;;;;;;0.68;0.52;;;19.40;81.60;;;;;;4985618;28;20050;-76
2022/07/24 08:38:40;;;;;;;0.55;0.45;;;19.40;82.00;;;;;;5005172;28;20033;-79
2022/07/24 08:41:06;;;;;;;1.45;0.43;;;19.50;83.00;;;;;;5002954;28;20794;-77
2022/07/24 08:43:31;;;;;;;0.30;0.30;;;19.60;79.20;;;;;;5005105;28;20136;-77
2022/07/24 08:45:59;;;;;;;1.60;0.57;;;19.60;79.10;;;;;;5002701;28;20687;-76
2022/07/24 08:48:27;;;;;;;0.45;0.45;;;19.80;79.70;;;;;;5005552;28;20022;-77
2022/07/24 08:50:52;;;;;;;0.38;0.35;;;19.90;78.80;;;;;;5007559;28;20033;-77
2022/07/24 08:53:22;;;;;;;0.40;0.40;;;19.90;76.40;;;;;;5006885;28;20030;-78
2022/07/24 08:59:22;;;;;;;0.30;0.30;;;20.00;75.40;;;;;;4937521;28;20048;-79
2022/07/24 09:01:49;;;;;;;0.30;0.30;;;20.10;78.00;;;;;;5004828;28;20578;-79
2022/07/24 09:04:37;;;;;;;0.50;0.25;;;20.20;76.40;;;;;;5006486;28;20029;-78
2022/07/24 09:07:09;;;;;;;0.28;0.28;;;20.30;73.10;;;;;;5006382;28;20104;-80
2022/07/24 09:09:36;;;;;;;0.35;0.35;;;20.40;73.10;;;;;;5002497;28;20695;-76
2022/07/24 09:12:06;;;;;;;0.40;0.40;;;20.40;71.40;;;;;;5010571;28;20065;-78
2022/07/24 09:14:33;;;;;;;0.50;0.50;;;20.40;74.70;;;;;;5007304;28;20052;-76
2022/07/24 09:17:05;;;;;;;0.50;0.40;;;20.50;73.40;;;;;;5010793;28;20054;-77
2022/07/24 09:19:44;;;;;;;0.63;0.63;;;20.60;72.80;;;;;;5012890;28;20534;-77
2022/07/24 09:22:15;;;;;;;0.40;0.40;;;20.70;74.70;;;;;;5015577;28;20054;-83
2022/07/24 09:24:42;;;;;;;0.28;0.28;;;20.80;69.70;;;;;;5009490;28;20034;-75
2022/07/24 09:27:14;;;;;;;0.30;0.30;;;20.80;70.70;;;;;;4999403;28;20034;-75
2022/07/24 09:29:39;;;;;;;0.77;0.43;;;20.80;69.50;;;;;;5008669;28;20033;-75
2022/07/24 09:32:05;;;;;;;0.47;0.47;;;20.90;71.10;;;;;;4995496;28;20137;-75
2022/07/24 09:34:38;;;;;;;0.40;0.40;;;21.10;68.20;;;;;;5008283;28;20029;-75
2022/07/24 09:37:06;;;;;;;0.45;0.45;;;21.20;69.40;;;;;;5007505;28;20030;-74
2022/07/24 09:39:37;;;;;;;0.30;0.30;;;21.40;70.10;;;;;;5006927;28;20037;-75
2022/07/24 09:46:01;;;;;;;0.40;0.40;;;21.50;69.00;;;;;;5011492;28;20045;-80
2022/07/24 09:48:32;;;;;;;0.63;0.60;;;21.50;69.50;;;;;;5022465;28;20033;-77
2022/07/24 09:51:03;;;;;;;0.47;0.40;;;21.60;67.60;;;;;;5007573;28;20022;-76
2022/07/24 09:53:32;;;;;;;0.50;0.50;;;21.70;67.30;;;;;;5012267;28;20700;-80
2022/07/24 09:56:03;;;;;;;1.00;0.65;;;21.80;66.20;;;;;;5011971;28;20488;-79
2022/07/24 09:58:31;;;;;;;0.65;0.50;;;21.90;68.30;;;;;;5012222;28;20112;-80
2022/07/24 10:00:59;;;;;;;1.25;0.45;;;22.10;64.80;;;;;;5011360;28;20034;-77
2022/07/24 10:03:27;;;;;;;0.50;0.50;;;22.00;68.40;;;;;;5011040;28;20022;-77
2022/07/24 10:06:01;;;;;;;0.55;0.55;;;22.10;68.00;;;;;;5007051;28;20029;-76
2022/07/24 10:08:27;;;;;;;1.67;0.85;;;22.20;66.60;;;;;;5010608;28;20034;-77
2022/07/24 10:10:54;;;;;;;0.68;0.68;;;22.20;65.70;;;;;;5015640;28;20076;-78
2022/07/24 10:13:20;;;;;;;0.43;0.43;;;22.30;65.90;;;;;;5016593;28;20092;-79
2022/07/24 10:15:59;;;;;;;0.32;0.32;;;22.50;67.10;;;;;;5012258;28;20488;-78
2022/07/24 10:18:43;;;;;;;0.40;0.40;;;22.50;67.80;;;;;;5008392;28;20523;-81
2022/07/24 10:21:11;;;;;;;0.32;0.32;;;22.60;71.20;;;;;;5010442;28;20053;-79
2022/07/24 10:24:09;;;;;;;0.70;0.43;;;22.70;66.50;;;;;;5021972;28;20527;-75
2022/07/24 10:26:49;;;;;;;0.40;0.40;;;22.80;65.30;;;;;;5013395;28;20030;-76
2022/07/24 10:29:20;;;;;;;0.32;0.32;;;22.80;64.90;;;;;;5009162;28;20029;-77
2022/07/24 10:31:49;;;;;;;0.60;0.60;;;22.80;62.10;;;;;;5015822;28;20038;-80
2022/07/24 10:34:23;;;;;;;0.73;0.50;;;22.70;62.70;;;;;;5012434;28;20021;-78
2022/07/24 10:37:22;;;;;;;0.40;0.40;;;23.00;65.20;;;;;;5008181;28;20393;-78
2022/07/24 10:40:10;;;;;;;0.45;0.43;;;23.10;63.60;;;;;;5011461;28;20468;-79
2022/07/24 10:43:13;;;;;;;0.50;0.50;;;23.50;63.90;;;;;;5010431;28;20033;-78
2022/07/24 10:45:40;;;;;;;0.43;0.43;;;23.80;63.30;;;;;;5006078;28;20033;-79
2022/07/24 10:48:24;;;;;;;0.43;0.43;;;24.00;64.20;;;;;;5010169;28;20040;-83
2022/07/24 10:51:08;;;;;;;0.45;0.45;;;24.30;61.20;;;;;;5009570;28;20129;-78
2022/07/24 10:53:36;;;;;;;0.50;0.50;;;24.40;59.90;;;;;;5007137;28;20037;-79
2022/07/24 10:56:25;;;;;;;1.02;0.50;;;24.50;59.70;;;;;;5011773;28;20026;-79
2022/07/24 10:59:01;;;;;;;0.60;0.60;;;24.90;60.20;;;;;;5016551;28;20026;-79
2022/07/24 11:01:29;;;;;;;0.55;0.55;;;24.90;58.70;;;;;;5013391;28;20057;-78
2022/07/24 11:03:55;;;;;;;0.73;0.57;;;24.80;57.60;;;;;;5011117;28;20030;-84
2022/07/24 11:06:44;;;;;;;0.60;0.60;;;24.80;59.10;;;;;;5010494;28;20490;-84
2022/07/24 11:09:10;;;;;;;0.55;0.55;;;25.00;57.50;;;;;;5009810;28;20480;-86
2022/07/24 11:11:42;;;;;;;0.60;0.60;;;25.20;58.60;;;;;;5010895;28;20109;-82
2022/07/24 11:14:08;;;;;;;0.70;0.70;;;25.60;57.10;;;;;;5010662;28;20030;-85
2022/07/24 11:16:34;;;;;;;0.88;0.75;;;25.70;57.80;;;;;;5010392;28;20568;-86
2022/07/24 11:18:59;;;;;;;0.77;0.77;;;25.50;54.30;;;;;;5014362;28;20060;-87
2022/07/24 11:21:36;;;;;;;0.70;0.70;;;25.50;56.80;;;;;;5010669;28;20104;-87
2022/07/24 11:24:19;;;;;;;0.80;0.60;;;25.70;59.40;;;;;;5011122;28;20029;-86
2022/07/24 11:26:52;;;;;;;0.50;0.50;;;25.90;54.60;;;;;;5009513;28;20038;-87
2022/07/24 11:29:38;;;;;;;0.50;0.50;;;26.00;55.10;;;;;;5021389;28;20518;-86
2022/07/24 11:32:07;;;;;;;0.75;0.75;;;26.00;55.50;;;;;;5010227;28;20556;-85
2022/07/24 11:34:34;;;;;;;0.60;0.60;;;26.20;54.80;;;;;;5010434;28;20765;-87
2022/07/24 11:37:00;;;;;;;0.70;0.70;;;26.20;54.40;;;;;;5009470;28;20025;-86
2022/07/24 11:39:29;;;;;;;4.07;0.93;;;26.20;55.20;;;;;;5015239;28;20038;-88
2022/07/24 11:41:58;;;;;;;0.88;0.60;;;26.50;55.00;;;;;;5012651;28;20757;-85
2022/07/24 11:44:25;;;;;;;0.60;0.60;;;26.90;53.50;;;;;;5010404;28;20057;-88
2022/07/24 11:46:51;;;;;;;0.52;0.52;;;27.20;52.10;;;;;;5009959;28;20041;-87
2022/07/24 11:49:17;;;;;;;1.27;0.60;;;27.30;53.20;;;;;;5009440;28;20092;-87
2022/07/24 11:51:48;;;;;;;0.60;0.60;;;27.20;52.90;;;;;;5010176;28;20520;-86
2022/07/24 11:54:24;;;;;;;0.98;0.70;;;27.30;51.50;;;;;;5014289;28;20021;-84
2022/07/24 11:56:50;;;;;;;0.68;0.68;;;27.50;53.00;;;;;;5013584;28;20029;-87
2022/07/24 11:59:32;;;;;;;0.55;0.55;;;28.00;54.60;;;;;;4994547;28;20036;-85
2022/07/24 12:02:10;;;;;;;0.80;0.80;;;28.40;50.80;;;;;;5012084;28;20558;-84
2022/07/24 12:04:38;;;;;;;0.60;0.60;;;28.40;51.00;;;;;;5010553;28;20129;-87
2022/07/24 12:07:08;;;;;;;0.60;0.60;;;28.40;51.90;;;;;;5014936;28;20476;-86
2022/07/24 12:09:58;;;;;;;2.22;0.85;;;28.80;51.70;;;;;;5009836;28;20037;-85
2022/07/24 12:12:36;;;;;;;1.10;0.60;;;28.90;48.10;;;;;;5009690;28;20022;-86
2022/07/24 12:15:11;;;;;;;0.50;0.50;;;29.20;47.80;;;;;;5009401;28;20026;-87
2022/07/24 12:17:59;;;;;;;2.80;0.60;;;28.90;48.60;;;;;;5012584;28;20148;-87
2022/07/24 12:20:32;;;;;;;1.02;0.80;;;28.90;48.20;;;;;;5015059;28;20025;-84
2022/07/24 12:23:01;;;;;;;0.90;0.60;;;29.20;49.60;;;;;;5009245;28;20077;-85
2022/07/24 12:25:28;;;;;;;0.70;0.70;;;29.40;47.80;;;;;;5009595;28;20161;-87
2022/07/24 12:28:12;;;;;;;0.60;0.55;;;29.80;48.80;;;;;;5009166;28;20452;-86
2022/07/24 12:30:40;;;;;;;1.10;0.70;;;30.50;48.20;;;;;;5008749;28;20026;-84
2022/07/24 12:33:09;;;;;;;1.10;0.80;;;29.60;60.30;;;;;;5016850;28;20750;-86
2022/07/24 12:36:15;;;;;;;1.02;0.70;;;30.50;46.30;;;;;;5008991;28;20633;-86
2022/07/24 12:38:50;;;;;;;0.70;0.70;;;30.70;46.40;;;;;;5009624;28;20034;-85
2022/07/24 12:41:18;;;;;;;1.13;0.80;;;30.70;47.50;;;;;;5014224;28;20034;-86
2022/07/24 12:43:53;;;;;;;0.57;0.57;;;30.50;44.60;;;;;;5009295;28;20049;-85
2022/07/24 12:46:23;;;;;;;0.80;0.80;;;30.50;45.40;;;;;;5008873;28;20117;-86
2022/07/24 12:48:55;;;;;;;1.10;1.00;;;29.90;45.70;;;;;;5009466;28;20045;-85
2022/07/24 12:51:21;;;;;;;0.90;0.90;;;30.10;46.90;;;;;;5022616;28;20018;-85
2022/07/24 12:53:53;;;;;;;0.73;0.70;;;30.90;45.80;;;;;;5022613;28;20024;-86
2022/07/24 12:56:18;;;;;;;0.73;0.70;;;31.10;42.60;;;;;;5015756;28;20026;-86
2022/07/24 12:58:55;;;;;;;0.77;0.77;;;31.30;41.80;;;;;;5013152;28;20047;-84